Kansas City, Missouri
Traffic Map
Current Weather Conditions
Kansas City, Missouri
Overcast
Overcast
63°
Feels Like: 63°
Wind Chill: 63° Ceiling: 8000
Heat Index: 63° Visibility: 10mi
Dew Point: 28° Wind: 15mph
Humidity: 27% Direction: 70° (ENE)
Pressure: 30.11in Gusts: 24mph
Raw Report DataKMKC 220054Z 07013G21KT 10SM OVC080 17/M02 A3011 RMK AO2 SLP195 T01721022
Traffic Incident Summary
Active as of:
Severity:
Category:
InformationThere was an issue retrieving the traffic information for this location. Please try a different location or try again shortly.
Advertisements